Time;durP1;ratioP1;P1;durP2;ratioP2;P2;SDS_P1;SDS_P2;PMS_P1;PMS_P2;Temp;Humidity;BMP_temperature;BMP_pressure;BME280_temperature;BME280_humidity;BME280_pressure;Samples;Min_cycle;Max_cycle;Signal;HPM_P1;HPM_P2
2022/08/05 00:01:02;;;;;;;4.50;4.20;;;;;;;;;;5072429;28;20538;-61
2022/08/05 00:03:29;;;;;;;4.80;4.40;;;;;;;;;;5072416;28;20449;-61
2022/08/05 00:05:56;;;;;;;5.30;4.97;;;;;;;;;;5072376;28;20447;-61
2022/08/05 00:08:24;;;;;;;5.10;4.70;;;;;;;;;;5072261;28;20447;-61
2022/08/05 00:10:51;;;;;;;4.23;4.03;;;;;;;;;;5074742;28;20570;-61
2022/08/05 00:13:18;;;;;;;4.23;4.03;;;;;;;;;;5076178;28;20822;-61
2022/08/05 00:15:45;;;;;;;5.07;4.67;;;;;;;;;;5076079;28;20453;-61
2022/08/05 00:18:12;;;;;;;4.70;4.30;;;;;;;;;;5076046;28;20443;-61
2022/08/05 00:20:38;;;;;;;4.60;4.40;;;;;;;;;;5075859;28;20535;-61
2022/08/05 00:23:06;;;;;;;4.60;4.40;;;;;;;;;;5075982;28;20479;-61
2022/08/05 00:25:34;;;;;;;7.03;4.07;;;;;;;;;;5075988;28;20455;-61
2022/08/05 00:28:01;;;;;;;5.03;4.73;;;;;;;;;;5075921;28;20743;-61
2022/08/05 00:30:28;;;;;;;4.93;4.53;;;;;;;;;;5075802;28;20443;-61
2022/08/05 00:32:55;;;;;;;5.47;5.10;;;;;;;;;;5075690;28;20449;-61
2022/08/05 00:35:22;;;;;;;4.50;4.23;;;;;;;;;;5075601;28;20530;-61
2022/08/05 00:37:49;;;;;;;5.00;4.70;;;;;;;;;;5075835;28;20443;-61
2022/08/05 00:40:16;;;;;;;4.60;4.30;;;;;;;;;;5075746;28;20481;-61
2022/08/05 00:42:44;;;;;;;4.20;3.90;;;;;;;;;;5075559;28;20485;-61
2022/08/05 00:45:11;;;;;;;4.40;4.10;;;;;;;;;;5075528;28;20451;-61
2022/08/05 00:47:39;;;;;;;4.50;3.73;;;;;;;;;;5075455;28;20798;-61
2022/08/05 00:50:06;;;;;;;3.73;3.53;;;;;;;;;;5075784;28;20957;-61
2022/08/05 00:52:33;;;;;;;3.93;3.73;;;;;;;;;;5075489;28;20447;-61
2022/08/05 00:55:00;;;;;;;3.80;3.60;;;;;;;;;;5075477;28;20447;-61
2022/08/05 00:57:27;;;;;;;3.90;3.60;;;;;;;;;;5075361;28;20451;-61
2022/08/05 00:59:56;;;;;;;4.27;3.83;;;;;;;;;;5075315;28;20538;-61
2022/08/05 01:02:22;;;;;;;4.10;3.80;;;;;;;;;;5075007;28;20529;-61
2022/08/05 01:04:49;;;;;;;4.33;3.93;;;;;;;;;;5075337;28;20454;-61
2022/08/05 01:07:16;;;;;;;4.53;4.23;;;;;;;;;;5075198;28;20454;-61
2022/08/05 01:09:43;;;;;;;3.90;3.70;;;;;;;;;;5074993;28;20554;-61
2022/08/05 01:12:12;;;;;;;5.90;4.00;;;;;;;;;;5075146;28;20451;-61
2022/08/05 01:14:41;;;;;;;4.43;4.03;;;;;;;;;;5074893;28;20447;-62
2022/08/05 01:17:12;;;;;;;3.43;3.07;;;;;;;;;;5074873;28;20451;-61
2022/08/05 01:19:41;;;;;;;4.20;3.90;;;;;;;;;;5075193;28;20601;-61
2022/08/05 01:22:15;;;;;;;4.67;4.27;;;;;;;;;;5074307;28;20489;-61
2022/08/05 01:24:50;;;;;;;3.73;3.50;;;;;;;;;;5074879;28;20451;-61
2022/08/05 01:27:25;;;;;;;6.03;4.20;;;;;;;;;;5074743;28;20451;-61
2022/08/05 01:29:56;;;;;;;4.57;3.80;;;;;;;;;;5074848;28;20760;-61
2022/08/05 01:32:25;;;;;;;4.63;4.33;;;;;;;;;;5074727;28;20854;-61
2022/08/05 01:34:55;;;;;;;4.17;3.90;;;;;;;;;;5074627;28;20802;-61
2022/08/05 01:37:24;;;;;;;6.10;4.27;;;;;;;;;;5074533;28;20940;-61
2022/08/05 01:39:53;;;;;;;3.87;3.67;;;;;;;;;;5074342;28;20526;-61
2022/08/05 01:42:21;;;;;;;3.93;3.73;;;;;;;;;;5074515;28;20483;-61
2022/08/05 01:44:48;;;;;;;3.70;3.50;;;;;;;;;;5074541;28;20454;-61
2022/08/05 01:47:18;;;;;;;4.57;3.60;;;;;;;;;;5074430;28;20811;-61
2022/08/05 01:49:45;;;;;;;3.70;3.50;;;;;;;;;;5074302;28;20463;-61
2022/08/05 01:52:13;;;;;;;4.03;3.70;;;;;;;;;;5074123;28;20453;-61
2022/08/05 01:54:43;;;;;;;3.43;3.33;;;;;;;;;;5074399;28;20848;-61
2022/08/05 01:57:10;;;;;;;4.80;4.40;;;;;;;;;;5074258;28;20444;-61
2022/08/05 01:59:40;;;;;;;4.47;4.27;;;;;;;;;;5074209;28;20969;-61
2022/08/05 02:02:07;;;;;;;10.53;5.00;;;;;;;;;;5074021;28;20907;-61
2022/08/05 02:04:37;;;;;;;4.50;4.10;;;;;;;;;;5073935;28;20443;-61
2022/08/05 02:07:04;;;;;;;3.67;3.47;;;;;;;;;;5073912;28;20451;-61
2022/08/05 02:09:31;;;;;;;4.07;3.77;;;;;;;;;;5073855;28;20450;-61
2022/08/05 02:12:01;;;;;;;4.03;3.83;;;;;;;;;;5073953;28;20891;-61
2022/08/05 02:14:29;;;;;;;5.03;3.83;;;;;;;;;;5073818;28;20444;-61
2022/08/05 02:16:56;;;;;;;4.10;3.80;;;;;;;;;;5073735;28;20888;-61
2022/08/05 02:19:31;;;;;;;4.00;3.80;;;;;;;;;;5073650;28;20533;-61
2022/08/05 02:22:01;;;;;;;5.63;3.77;;;;;;;;;;5073809;28;20457;-61
2022/08/05 02:24:32;;;;;;;4.37;3.83;;;;;;;;;;5073755;28;20455;-61
2022/08/05 02:27:01;;;;;;;4.53;4.33;;;;;;;;;;5074073;28;20873;-61
2022/08/05 02:29:29;;;;;;;5.80;4.57;;;;;;;;;;5073590;28;20526;-61
2022/08/05 02:31:58;;;;;;;4.83;4.43;;;;;;;;;;5072964;28;20471;-61
2022/08/05 02:34:26;;;;;;;4.80;4.40;;;;;;;;;;5073294;28;21033;-61
2022/08/05 02:36:55;;;;;;;4.80;4.50;;;;;;;;;;5073528;28;20451;-61
2022/08/05 02:39:24;;;;;;;5.40;4.90;;;;;;;;;;5073326;28;20957;-61
2022/08/05 02:41:52;;;;;;;10.03;4.10;;;;;;;;;;5073232;28;20553;-61
2022/08/05 02:44:20;;;;;;;4.93;4.43;;;;;;;;;;5073183;28;20853;-61
2022/08/05 02:46:47;;;;;;;5.40;5.03;;;;;;;;;;5073405;28;20444;-61
2022/08/05 02:49:15;;;;;;;5.50;4.77;;;;;;;;;;5073291;28;20439;-61
2022/08/05 02:51:43;;;;;;;5.20;4.80;;;;;;;;;;5073272;28;20447;-61
2022/08/05 02:54:10;;;;;;;5.43;5.03;;;;;;;;;;5073134;28;20458;-61
2022/08/05 02:56:38;;;;;;;11.43;9.53;;;;;;;;;;5073114;28;20444;-61
2022/08/05 02:59:06;;;;;;;7.27;5.27;;;;;;;;;;5072967;28;20447;-61
2022/08/05 03:01:34;;;;;;;5.20;4.80;;;;;;;;;;5073199;28;20451;-61
2022/08/05 03:04:03;;;;;;;6.00;4.40;;;;;;;;;;5072920;28;20489;-61
2022/08/05 03:06:30;;;;;;;5.20;4.70;;;;;;;;;;5073033;28;20541;-61
2022/08/05 03:08:58;;;;;;;5.70;5.20;;;;;;;;;;5073042;28;20487;-61
2022/08/05 03:11:26;;;;;;;6.80;5.60;;;;;;;;;;5072642;28;20486;-61
2022/08/05 03:13:55;;;;;;;4.83;4.53;;;;;;;;;;5073047;28;20485;-61
2022/08/05 03:16:22;;;;;;;10.60;5.57;;;;;;;;;;5073019;28;20453;-61
2022/08/05 03:18:49;;;;;;;5.07;4.77;;;;;;;;;;5072942;28;20451;-60
2022/08/05 03:21:16;;;;;;;5.40;5.10;;;;;;;;;;5072794;28;20458;-60
2022/08/05 03:23:44;;;;;;;6.93;5.27;;;;;;;;;;5072624;28;20483;-60
2022/08/05 03:26:11;;;;;;;6.53;6.03;;;;;;;;;;5072698;28;20447;-61
2022/08/05 03:28:38;;;;;;;7.20;6.60;;;;;;;;;;5072881;28;20457;-61
2022/08/05 03:31:06;;;;;;;7.10;6.30;;;;;;;;;;5072805;28;20458;-61
2022/08/05 03:33:34;;;;;;;6.30;5.70;;;;;;;;;;5072566;28;20977;-61
2022/08/05 03:36:01;;;;;;;8.87;5.57;;;;;;;;;;5072600;28;20958;-61
2022/08/05 03:38:28;;;;;;;11.33;5.50;;;;;;;;;;5072562;28;20666;-61
2022/08/05 03:40:55;;;;;;;6.03;5.53;;;;;;;;;;5072783;28;20440;-61
2022/08/05 03:43:24;;;;;;;5.67;5.37;;;;;;;;;;5072893;28;20479;-61
2022/08/05 03:45:52;;;;;;;11.33;6.00;;;;;;;;;;5076464;28;21007;-60
2022/08/05 03:48:21;;;;;;;8.70;5.60;;;;;;;;;;5076698;28;20477;-61
2022/08/05 03:50:51;;;;;;;6.70;6.10;;;;;;;;;;5076664;28;20799;-61
2022/08/05 03:53:22;;;;;;;6.80;6.10;;;;;;;;;;5076539;28;20451;-61
2022/08/05 03:55:52;;;;;;;7.37;6.10;;;;;;;;;;5076672;28;20478;-61
2022/08/05 03:58:23;;;;;;;5.83;5.33;;;;;;;;;;5076458;28;20461;-61
2022/08/05 04:00:50;;;;;;;9.20;5.67;;;;;;;;;;5076454;28;20473;-61
2022/08/05 04:03:18;;;;;;;9.47;6.23;;;;;;;;;;5076111;28;20475;-61
2022/08/05 04:05:46;;;;;;;5.83;5.43;;;;;;;;;;5076222;28;20451;-61
2022/08/05 04:08:14;;;;;;;9.00;6.63;;;;;;;;;;5076334;28;20931;-61
2022/08/05 04:10:42;;;;;;;6.07;5.70;;;;;;;;;;5076038;28;20475;-60
2022/08/05 04:13:09;;;;;;;7.60;6.90;;;;;;;;;;5076130;28;20451;-61
2022/08/05 04:15:36;;;;;;;7.33;6.63;;;;;;;;;;5076469;28;20797;-61
2022/08/05 04:18:03;;;;;;;7.60;6.90;;;;;;;;;;5076060;28;20538;-61
2022/08/05 04:20:30;;;;;;;7.13;6.40;;;;;;;;;;5075911;28;20569;-60
2022/08/05 04:22:58;;;;;;;7.33;5.90;;;;;;;;;;5075846;28;20478;-61
2022/08/05 04:25:25;;;;;;;11.57;10.50;;;;;;;;;;5075981;28;20543;-61
2022/08/05 04:27:52;;;;;;;6.47;5.87;;;;;;;;;;5075817;28;20891;-61
2022/08/05 04:30:19;;;;;;;7.47;6.47;;;;;;;;;;5075896;28;20459;-61
2022/08/05 04:32:46;;;;;;;10.53;6.30;;;;;;;;;;5075557;28;20455;-61
2022/08/05 04:35:13;;;;;;;12.70;7.00;;;;;;;;;;5075955;28;20784;-61
2022/08/05 04:37:40;;;;;;;7.27;6.47;;;;;;;;;;5075800;28;20489;-61
2022/08/05 04:40:09;;;;;;;7.60;6.80;;;;;;;;;;5075710;28;20930;-61
2022/08/05 04:42:36;;;;;;;9.53;7.77;;;;;;;;;;5075340;28;20447;-60
2022/08/05 04:45:03;;;;;;;15.77;8.80;;;;;;;;;;5075477;28;20829;-61
2022/08/05 04:47:30;;;;;;;7.97;7.27;;;;;;;;;;5075446;28;20911;-61
2022/08/05 04:49:57;;;;;;;7.67;7.07;;;;;;;;;;5075586;28;20449;-61
2022/08/05 04:52:23;;;;;;;7.80;7.30;;;;;;;;;;5075230;28;20938;-61
2022/08/05 04:54:50;;;;;;;9.13;8.30;;;;;;;;;;5075104;28;20447;-61
2022/08/05 04:57:19;;;;;;;9.93;7.93;;;;;;;;;;5074723;28;20447;-60
2022/08/05 04:59:45;;;;;;;8.57;7.70;;;;;;;;;;5075250;28;20447;-61
2022/08/05 05:02:12;;;;;;;7.07;6.57;;;;;;;;;;5075339;28;20443;-61
2022/08/05 05:04:39;;;;;;;8.30;7.60;;;;;;;;;;5075299;28;20494;-61
2022/08/05 05:07:06;;;;;;;7.30;6.90;;;;;;;;;;5075162;28;20784;-61
2022/08/05 05:09:33;;;;;;;7.97;7.30;;;;;;;;;;5074846;28;20998;-61
2022/08/05 05:12:01;;;;;;;8.97;6.70;;;;;;;;;;5075046;28;20496;-61
2022/08/05 05:14:29;;;;;;;8.67;7.77;;;;;;;;;;5074853;28;20849;-61
2022/08/05 05:16:56;;;;;;;7.83;7.20;;;;;;;;;;5075041;28;20448;-61
2022/08/05 05:19:23;;;;;;;7.90;7.27;;;;;;;;;;5074997;28;20810;-61
2022/08/05 05:21:50;;;;;;;7.63;7.13;;;;;;;;;;5075184;28;20454;-61
2022/08/05 05:24:18;;;;;;;7.40;6.93;;;;;;;;;;5074484;28;20842;-61
2022/08/05 05:26:45;;;;;;;8.47;7.57;;;;;;;;;;5074583;28;20931;-61
2022/08/05 05:29:12;;;;;;;8.07;7.50;;;;;;;;;;5074582;28;20443;-61
2022/08/05 05:31:40;;;;;;;8.43;6.77;;;;;;;;;;5074482;28;20447;-61
2022/08/05 05:34:07;;;;;;;7.90;7.13;;;;;;;;;;5074624;28;20443;-61
2022/08/05 05:36:34;;;;;;;9.43;7.00;;;;;;;;;;5074472;28;20804;-61
2022/08/05 05:39:01;;;;;;;7.50;6.90;;;;;;;;;;5074406;28;20451;-61
2022/08/05 05:41:28;;;;;;;7.53;7.03;;;;;;;;;;5074313;28;20810;-61
2022/08/05 05:43:54;;;;;;;6.93;6.33;;;;;;;;;;5074276;28;20662;-61
2022/08/05 05:46:21;;;;;;;7.20;6.60;;;;;;;;;;5074368;28;20447;-61
2022/08/05 05:48:50;;;;;;;8.80;7.87;;;;;;;;;;5074286;28;20822;-61
2022/08/05 05:51:20;;;;;;;7.20;6.60;;;;;;;;;;5074216;28;20478;-61
2022/08/05 05:53:47;;;;;;;10.93;7.47;;;;;;;;;;5074087;28;20450;-61
2022/08/05 05:56:14;;;;;;;7.73;7.23;;;;;;;;;;5074055;28;20469;-61
2022/08/05 05:58:41;;;;;;;7.60;7.10;;;;;;;;;;5074190;28;20443;-61
2022/08/05 06:01:08;;;;;;;7.90;7.40;;;;;;;;;;5074085;28;20450;-61
2022/08/05 06:03:37;;;;;;;7.77;7.17;;;;;;;;;;5073791;28;20489;-61
2022/08/05 06:06:06;;;;;;;8.57;7.40;;;;;;;;;;5073739;28;20451;-61
2022/08/05 06:08:33;;;;;;;6.90;6.40;;;;;;;;;;5073587;28;20447;-61
2022/08/05 06:11:00;;;;;;;6.77;6.27;;;;;;;;;;5073584;28;20822;-61
2022/08/05 06:13:27;;;;;;;8.83;7.30;;;;;;;;;;5073798;28;20810;-61
2022/08/05 06:15:53;;;;;;;6.80;6.20;;;;;;;;;;5073662;28;20450;-61
2022/08/05 06:18:20;;;;;;;6.53;6.03;;;;;;;;;;5073698;28;20443;-61
2022/08/05 06:20:47;;;;;;;6.00;5.60;;;;;;;;;;5073595;28;20776;-61
2022/08/05 06:23:16;;;;;;;12.10;5.37;;;;;;;;;;5073341;28;20569;-61
2022/08/05 06:25:42;;;;;;;5.47;4.93;;;;;;;;;;5073560;28;20452;-61
2022/08/05 06:28:09;;;;;;;7.13;5.70;;;;;;;;;;5073601;28;20815;-61
2022/08/05 06:30:36;;;;;;;5.07;4.67;;;;;;;;;;5073432;28;20482;-61
2022/08/05 06:33:03;;;;;;;5.10;4.63;;;;;;;;;;5073358;28;20449;-61
2022/08/05 06:35:30;;;;;;;5.27;4.93;;;;;;;;;;5073189;28;20537;-61
2022/08/05 06:37:57;;;;;;;5.60;5.20;;;;;;;;;;5073061;28;20458;-61
2022/08/05 06:40:25;;;;;;;4.97;4.50;;;;;;;;;;5073442;28;20454;-61
2022/08/05 06:42:52;;;;;;;4.73;4.23;;;;;;;;;;5073018;28;20938;-61
2022/08/05 06:45:19;;;;;;;4.60;4.30;;;;;;;;;;5073076;28;20483;-60
2022/08/05 06:47:46;;;;;;;6.33;4.60;;;;;;;;;;5073098;28;20447;-61
2022/08/05 06:50:13;;;;;;;12.10;4.87;;;;;;;;;;5073020;28;20447;-61
2022/08/05 06:52:40;;;;;;;9.80;5.00;;;;;;;;;;5073092;28;20821;-60
2022/08/05 06:55:07;;;;;;;7.30;4.30;;;;;;;;;;5073005;28;20534;-60
2022/08/05 06:57:36;;;;;;;4.87;4.40;;;;;;;;;;5075976;28;20810;-61
2022/08/05 07:00:03;;;;;;;5.23;4.73;;;;;;;;;;5082335;28;20542;-60
2022/08/05 07:02:30;;;;;;;4.63;4.23;;;;;;;;;;5084304;28;20513;-59
2022/08/05 07:04:57;;;;;;;5.20;4.47;;;;;;;;;;5092871;28;20481;-60
2022/08/05 07:07:24;;;;;;;4.97;4.13;;;;;;;;;;5092836;28;20453;-60
2022/08/05 07:09:50;;;;;;;11.57;3.37;;;;;;;;;;5092959;28;20480;-59
2022/08/05 07:17:44;;;;;;;3.07;2.53;;;;;;;;;;5092831;28;20454;-59
2022/08/05 07:20:11;;;;;;;3.37;2.23;;;;;;;;;;5092533;28;20545;-59
2022/08/05 07:22:38;;;;;;;7.40;3.03;;;;;;;;;;5076816;28;20559;-61
2022/08/05 07:25:07;;;;;;;3.20;2.77;;;;;;;;;;5078217;28;20491;-59
2022/08/05 07:27:34;;;;;;;4.03;2.80;;;;;;;;;;5075310;28;20901;-59
2022/08/05 07:30:02;;;;;;;3.00;2.70;;;;;;;;;;5074362;28;20542;-62
2022/08/05 07:32:29;;;;;;;2.90;2.80;;;;;;;;;;5072334;28;20451;-59
2022/08/05 07:34:56;;;;;;;2.60;2.40;;;;;;;;;;5081863;28;20526;-61
2022/08/05 07:37:22;;;;;;;4.23;3.10;;;;;;;;;;5076424;28;20472;-66
2022/08/05 07:39:49;;;;;;;2.77;2.57;;;;;;;;;;5081769;28;20534;-59
2022/08/05 07:42:16;;;;;;;3.10;2.90;;;;;;;;;;5075609;28;20447;-62
2022/08/05 07:44:43;;;;;;;2.80;2.60;;;;;;;;;;5076305;28;20569;-63
2022/08/05 07:47:11;;;;;;;2.70;2.37;;;;;;;;;;5079838;28;20462;-62
2022/08/05 07:49:38;;;;;;;5.27;2.50;;;;;;;;;;5083267;28;20450;-63
2022/08/05 07:52:05;;;;;;;4.63;2.93;;;;;;;;;;5076117;28;20808;-62
2022/08/05 07:54:32;;;;;;;2.50;2.30;;;;;;;;;;5076195;28;20451;-61
2022/08/05 07:56:59;;;;;;;2.20;2.10;;;;;;;;;;5081447;28;20559;-62
2022/08/05 07:59:26;;;;;;;6.43;2.63;;;;;;;;;;5080860;28;20452;-65
2022/08/05 08:01:53;;;;;;;2.77;2.40;;;;;;;;;;5077630;28;20451;-62
2022/08/05 08:04:21;;;;;;;3.23;2.37;;;;;;;;;;5080408;28;20488;-63
2022/08/05 08:06:48;;;;;;;2.57;2.33;;;;;;;;;;5073795;28;20542;-66
2022/08/05 08:09:15;;;;;;;2.80;2.67;;;;;;;;;;5082268;28;20451;-60
2022/08/05 08:11:42;;;;;;;6.13;1.90;;;;;;;;;;5079377;28;20466;-62
2022/08/05 08:14:09;;;;;;;2.97;2.80;;;;;;;;;;5085171;28;20490;-62
2022/08/05 08:16:36;;;;;;;2.80;2.30;;;;;;;;;;5089799;28;20949;-59
2022/08/05 08:19:03;;;;;;;4.77;2.50;;;;;;;;;;5072081;28;20447;-59
2022/08/05 08:21:31;;;;;;;2.50;2.30;;;;;;;;;;5086786;28;20450;-61
2022/08/05 08:23:58;;;;;;;3.13;2.40;;;;;;;;;;5073522;28;20913;-60
2022/08/05 08:26:25;;;;;;;2.40;2.20;;;;;;;;;;5083182;28;20447;-60
2022/08/05 08:28:52;;;;;;;2.47;2.37;;;;;;;;;;5075604;28;20533;-64
2022/08/05 08:31:19;;;;;;;5.20;2.37;;;;;;;;;;5079720;28;20458;-59
2022/08/05 08:33:46;;;;;;;2.27;2.07;;;;;;;;;;5079507;28;20447;-59
2022/08/05 08:36:13;;;;;;;2.83;2.23;;;;;;;;;;5084845;28;20535;-59
2022/08/05 08:38:42;;;;;;;3.63;2.17;;;;;;;;;;5082202;28;20821;-59
2022/08/05 08:41:10;;;;;;;3.00;1.90;;;;;;;;;;5089051;28;20442;-62
2022/08/05 08:43:38;;;;;;;1.83;1.60;;;;;;;;;;5095685;28;20495;-62
2022/08/05 08:46:05;;;;;;;2.53;1.73;;;;;;;;;;5093076;28;20457;-60
2022/08/05 08:48:33;;;;;;;2.00;1.73;;;;;;;;;;5078163;28;20451;-58
2022/08/05 08:51:00;;;;;;;2.20;2.00;;;;;;;;;;5080032;28;20451;-58
2022/08/05 08:53:28;;;;;;;4.03;3.23;;;;;;;;;;5095549;28;20449;-59
2022/08/05 08:55:56;;;;;;;3.53;1.90;;;;;;;;;;5087560;28;20550;-63
2022/08/05 08:58:23;;;;;;;2.10;1.90;;;;;;;;;;5089608;28;20526;-58
2022/08/05 09:00:50;;;;;;;2.17;2.03;;;;;;;;;;5094184;28;20511;-63
2022/08/05 09:03:17;;;;;;;1.67;1.57;;;;;;;;;;5080857;28;20454;-64
2022/08/05 09:05:44;;;;;;;4.10;2.50;;;;;;;;;;5084171;28;20496;-64
2022/08/05 09:08:11;;;;;;;3.03;2.23;;;;;;;;;;5081117;28;20462;-60
2022/08/05 09:10:40;;;;;;;2.13;2.00;;;;;;;;;;5085050;28;20490;-60
2022/08/05 09:13:09;;;;;;;4.40;2.23;;;;;;;;;;5074915;28;20452;-60
2022/08/05 09:15:38;;;;;;;2.20;1.90;;;;;;;;;;5081365;28;20459;-60
2022/08/05 09:18:07;;;;;;;2.80;2.10;;;;;;;;;;5080549;28;20456;-60
2022/08/05 09:20:34;;;;;;;1.67;1.57;;;;;;;;;;5087712;28;20461;-60
2022/08/05 09:23:05;;;;;;;2.90;2.07;;;;;;;;;;5094673;28;20526;-61
2022/08/05 09:25:32;;;;;;;3.70;2.60;;;;;;;;;;5094666;28;20482;-61
2022/08/05 09:28:09;;;;;;;3.03;2.77;;;;;;;;;;5081456;28;20951;-61
2022/08/05 09:30:37;;;;;;;2.40;2.17;;;;;;;;;;5077271;28;20461;-61
2022/08/05 09:33:05;;;;;;;5.30;2.17;;;;;;;;;;5088924;28;20451;-61
2022/08/05 09:35:32;;;;;;;7.70;2.50;;;;;;;;;;5083211;28;20541;-62
2022/08/05 09:37:59;;;;;;;3.93;1.80;;;;;;;;;;5081568;28;20458;-60
2022/08/05 09:40:30;;;;;;;4.40;2.63;;;;;;;;;;5081805;28;20458;-61
2022/08/05 09:42:57;;;;;;;2.87;2.13;;;;;;;;;;5084119;28;20466;-62
2022/08/05 09:45:34;;;;;;;3.10;2.13;;;;;;;;;;5078522;28;20490;-59
2022/08/05 09:48:18;;;;;;;3.30;2.00;;;;;;;;;;5082687;28;20442;-60
2022/08/05 09:50:49;;;;;;;3.07;2.10;;;;;;;;;;5076296;28;20554;-60
2022/08/05 09:53:16;;;;;;;2.30;2.10;;;;;;;;;;5081803;28;20456;-61
2022/08/05 09:55:43;;;;;;;2.40;2.20;;;;;;;;;;5081019;28;20462;-65
2022/08/05 09:58:10;;;;;;;2.70;2.03;;;;;;;;;;5082053;28;20456;-65
2022/08/05 10:00:37;;;;;;;3.70;2.40;;;;;;;;;;5082866;28;20805;-58
2022/08/05 10:03:11;;;;;;;3.60;2.10;;;;;;;;;;5078442;28;20452;-60
2022/08/05 10:05:40;;;;;;;5.83;1.90;;;;;;;;;;5073490;28;20811;-61
2022/08/05 10:08:07;;;;;;;2.83;2.63;;;;;;;;;;5075927;28;20448;-59
2022/08/05 10:10:38;;;;;;;2.53;2.33;;;;;;;;;;5078237;28;20486;-64
2022/08/05 10:13:06;;;;;;;4.00;2.30;;;;;;;;;;5082719;28;20826;-67
2022/08/05 10:15:33;;;;;;;7.60;2.97;;;;;;;;;;5082037;28;20784;-67
2022/08/05 10:18:12;;;;;;;2.90;2.30;;;;;;;;;;5079924;28;20494;-59
2022/08/05 10:20:41;;;;;;;3.07;2.50;;;;;;;;;;5081233;28;20478;-58
2022/08/05 10:23:08;;;;;;;3.63;2.57;;;;;;;;;;5081452;28;21000;-63
2022/08/05 10:25:35;;;;;;;4.03;2.77;;;;;;;;;;5081814;28;20535;-60
2022/08/05 10:28:02;;;;;;;2.27;2.17;;;;;;;;;;5076827;28;20463;-59
2022/08/05 10:30:30;;;;;;;2.80;2.47;;;;;;;;;;5072147;28;20447;-63
2022/08/05 10:32:58;;;;;;;3.00;2.70;;;;;;;;;;5083245;28;20459;-60
2022/08/05 10:35:27;;;;;;;5.70;3.30;;;;;;;;;;5082572;28;20467;-60
2022/08/05 10:37:54;;;;;;;3.07;2.50;;;;;;;;;;5075626;28;20453;-65
2022/08/05 10:40:25;;;;;;;12.97;4.50;;;;;;;;;;5073470;28;20537;-64
2022/08/05 10:42:54;;;;;;;4.80;2.67;;;;;;;;;;5073181;28;20450;-64
2022/08/05 10:45:26;;;;;;;3.33;3.10;;;;;;;;;;5073130;28;20489;-64
2022/08/05 10:47:53;;;;;;;4.73;3.53;;;;;;;;;;5073028;28;21003;-64
2022/08/05 10:50:20;;;;;;;5.80;3.03;;;;;;;;;;5073031;28;20486;-65
2022/08/05 10:52:55;;;;;;;3.47;3.17;;;;;;;;;;5072941;28;20456;-64
2022/08/05 10:55:22;;;;;;;3.30;2.97;;;;;;;;;;5072847;28;20845;-64
2022/08/05 10:57:49;;;;;;;3.60;3.20;;;;;;;;;;5072812;28;20966;-64
2022/08/05 11:00:17;;;;;;;3.57;3.13;;;;;;;;;;5072882;28;20448;-65
2022/08/05 11:03:03;;;;;;;3.17;2.73;;;;;;;;;;5073085;28;20608;-65
2022/08/05 11:05:30;;;;;;;3.20;2.80;;;;;;;;;;5072909;28;20508;-65
2022/08/05 11:07:58;;;;;;;3.67;3.37;;;;;;;;;;5072838;28;20544;-64
2022/08/05 11:10:26;;;;;;;6.53;3.40;;;;;;;;;;5072609;28;21047;-64
2022/08/05 11:12:53;;;;;;;3.33;3.03;;;;;;;;;;5072608;28;20450;-64
2022/08/05 11:15:22;;;;;;;3.03;2.60;;;;;;;;;;5072857;28;20842;-64
2022/08/05 11:17:50;;;;;;;3.00;2.80;;;;;;;;;;5072884;28;20439;-64
2022/08/05 11:20:37;;;;;;;4.00;3.17;;;;;;;;;;5072619;28;20492;-64
2022/08/05 11:23:22;;;;;;;3.07;2.77;;;;;;;;;;5072660;28;20538;-64
2022/08/05 11:26:02;;;;;;;3.87;2.90;;;;;;;;;;5072836;28;20482;-65
2022/08/05 11:28:48;;;;;;;3.20;2.67;;;;;;;;;;5072745;28;20542;-64
2022/08/05 11:31:22;;;;;;;4.50;3.17;;;;;;;;;;5072661;28;20483;-64
2022/08/05 11:33:54;;;;;;;3.80;2.57;;;;;;;;;;5072707;28;20844;-65
2022/08/05 11:36:22;;;;;;;2.70;2.50;;;;;;;;;;5072810;28;20557;-65
2022/08/05 11:38:53;;;;;;;2.90;2.70;;;;;;;;;;5072522;28;20965;-65
2022/08/05 11:41:23;;;;;;;2.37;2.10;;;;;;;;;;5072470;28;20443;-64
2022/08/05 11:43:57;;;;;;;2.70;2.50;;;;;;;;;;5072442;28;20534;-65
2022/08/05 11:46:28;;;;;;;2.90;2.70;;;;;;;;;;5072493;28;20505;-64
2022/08/05 11:48:55;;;;;;;2.50;2.17;;;;;;;;;;5072260;28;20961;-65
2022/08/05 11:51:23;;;;;;;3.20;3.00;;;;;;;;;;5072500;28;20456;-64
2022/08/05 11:53:50;;;;;;;3.03;2.47;;;;;;;;;;5072238;28;20447;-64
2022/08/05 11:56:17;;;;;;;2.63;2.43;;;;;;;;;;5072416;28;20454;-64
2022/08/05 11:58:46;;;;;;;2.60;2.50;;;;;;;;;;5072282;28;20451;-64
2022/08/05 12:01:14;;;;;;;2.90;2.47;;;;;;;;;;5072517;28;20439;-65
2022/08/05 12:03:42;;;;;;;2.17;2.07;;;;;;;;;;5072555;28;20447;-65
2022/08/05 12:06:09;;;;;;;2.17;2.03;;;;;;;;;;5075421;28;20524;-64
2022/08/05 12:08:40;;;;;;;3.00;2.80;;;;;;;;;;5076140;28;20969;-64
2022/08/05 12:11:08;;;;;;;2.60;2.40;;;;;;;;;;5075691;28;20471;-65
2022/08/05 12:13:37;;;;;;;2.77;2.57;;;;;;;;;;5076143;28;20457;-64
2022/08/05 12:16:05;;;;;;;2.80;2.60;;;;;;;;;;5076148;28;20800;-65
2022/08/05 12:18:33;;;;;;;3.50;2.80;;;;;;;;;;5075995;28;20443;-64
2022/08/05 12:21:09;;;;;;;3.07;2.50;;;;;;;;;;5075979;28;20444;-64
2022/08/05 12:23:37;;;;;;;3.20;2.23;;;;;;;;;;5075808;28;20458;-65
2022/08/05 12:26:03;;;;;;;3.40;3.10;;;;;;;;;;5075902;28;20873;-65
2022/08/05 12:28:31;;;;;;;2.33;2.23;;;;;;;;;;5075886;28;20537;-64
2022/08/05 12:30:58;;;;;;;4.53;2.37;;;;;;;;;;5075656;28;20453;-64
2022/08/05 12:33:26;;;;;;;2.43;2.10;;;;;;;;;;5075587;28;20531;-64
2022/08/05 12:35:54;;;;;;;2.67;2.47;;;;;;;;;;5075587;28;20466;-65
2022/08/05 12:38:22;;;;;;;2.77;2.57;;;;;;;;;;5075759;28;20573;-65
2022/08/05 12:40:49;;;;;;;2.90;2.57;;;;;;;;;;5075727;28;20458;-65
2022/08/05 12:43:16;;;;;;;2.50;2.40;;;;;;;;;;5075492;28;20562;-64
2022/08/05 12:45:50;;;;;;;3.17;2.70;;;;;;;;;;5075247;28;21053;-64
2022/08/05 12:48:17;;;;;;;3.30;1.90;;;;;;;;;;5075410;28;20935;-65
2022/08/05 12:51:05;;;;;;;2.73;2.53;;;;;;;;;;5075276;28;20451;-65
2022/08/05 12:53:32;;;;;;;2.67;2.47;;;;;;;;;;5075412;28;20454;-65
2022/08/05 12:55:59;;;;;;;2.63;2.43;;;;;;;;;;5075573;28;20455;-64
2022/08/05 12:58:26;;;;;;;2.07;1.90;;;;;;;;;;5075317;28;20483;-64
2022/08/05 13:00:52;;;;;;;2.77;2.57;;;;;;;;;;5075180;28;20455;-64
2022/08/05 13:03:19;;;;;;;3.63;2.70;;;;;;;;;;5074898;28;20462;-65
2022/08/05 13:05:48;;;;;;;2.63;2.43;;;;;;;;;;5075123;28;20475;-65
2022/08/05 13:08:18;;;;;;;2.10;2.00;;;;;;;;;;5075135;28;20792;-65
2022/08/05 13:10:45;;;;;;;2.50;2.40;;;;;;;;;;5074864;28;20565;-65
2022/08/05 13:13:12;;;;;;;2.10;2.00;;;;;;;;;;5074774;28;20462;-64
2022/08/05 13:15:40;;;;;;;2.47;2.30;;;;;;;;;;5074740;28;20667;-65
2022/08/05 13:18:07;;;;;;;2.10;2.00;;;;;;;;;;5074110;28;20958;-64
2022/08/05 13:20:35;;;;;;;2.60;2.40;;;;;;;;;;5074999;28;20447;-64
2022/08/05 13:23:03;;;;;;;2.90;2.70;;;;;;;;;;5074921;28;20538;-64
2022/08/05 13:25:30;;;;;;;3.03;2.73;;;;;;;;;;5074687;28;20471;-64
2022/08/05 13:27:57;;;;;;;3.00;2.40;;;;;;;;;;5074791;28;20447;-63
2022/08/05 13:30:25;;;;;;;2.20;2.10;;;;;;;;;;5074643;28;20501;-64
2022/08/05 13:32:52;;;;;;;2.50;2.40;;;;;;;;;;5074807;28;20470;-64
2022/08/05 13:35:20;;;;;;;2.67;2.40;;;;;;;;;;5074723;28;20538;-64
2022/08/05 13:37:47;;;;;;;2.30;2.20;;;;;;;;;;5074580;28;20454;-63
2022/08/05 13:40:17;;;;;;;3.40;3.10;;;;;;;;;;5074900;28;20825;-64
2022/08/05 13:42:44;;;;;;;2.63;2.53;;;;;;;;;;5074249;28;20483;-64
2022/08/05 13:45:12;;;;;;;3.07;2.87;;;;;;;;;;5074617;28;20483;-64
2022/08/05 13:47:39;;;;;;;2.80;2.60;;;;;;;;;;5074309;28;20463;-64
2022/08/05 13:50:06;;;;;;;2.47;2.27;;;;;;;;;;5074311;28;20454;-64
2022/08/05 13:52:33;;;;;;;3.10;2.90;;;;;;;;;;5074156;28;20530;-64
2022/08/05 13:55:00;;;;;;;3.47;3.17;;;;;;;;;;5074072;28;20946;-64
2022/08/05 13:57:29;;;;;;;2.80;2.63;;;;;;;;;;5074043;28;20539;-63
2022/08/05 13:59:56;;;;;;;3.97;2.70;;;;;;;;;;5074212;28;20446;-64
2022/08/05 14:02:22;;;;;;;3.70;2.60;;;;;;;;;;5074094;28;20814;-64
2022/08/05 14:07:35;;;;;;;2.80;2.53;;;;;;;;;;5073901;28;20482;-64
2022/08/05 14:10:02;;;;;;;3.17;2.90;;;;;;;;;;5073681;28;20503;-64
2022/08/05 14:12:30;;;;;;;2.73;2.53;;;;;;;;;;5073901;28;20479;-64
2022/08/05 14:14:57;;;;;;;3.10;2.90;;;;;;;;;;5073828;28;20454;-64
2022/08/05 14:17:25;;;;;;;2.40;2.30;;;;;;;;;;5073861;28;20452;-64
2022/08/05 14:19:53;;;;;;;2.50;2.30;;;;;;;;;;5073547;28;20447;-64
2022/08/05 14:22:20;;;;;;;3.37;2.20;;;;;;;;;;5073618;28;20853;-64
2022/08/05 14:24:47;;;;;;;2.60;2.40;;;;;;;;;;5073745;28;20460;-64
2022/08/05 14:27:14;;;;;;;2.40;2.20;;;;;;;;;;5073410;28;20483;-64
2022/08/05 14:29:42;;;;;;;2.83;2.13;;;;;;;;;;5072685;28;20530;-65
2022/08/05 14:32:09;;;;;;;2.17;2.07;;;;;;;;;;5073504;28;20448;-65
2022/08/05 14:34:36;;;;;;;2.53;2.40;;;;;;;;;;5073335;28;20444;-65
2022/08/05 14:37:03;;;;;;;3.10;2.50;;;;;;;;;;5073196;28;20538;-66
2022/08/05 14:39:30;;;;;;;3.43;2.63;;;;;;;;;;5073153;28;21010;-66
2022/08/05 14:41:57;;;;;;;2.93;2.73;;;;;;;;;;5073200;28;20960;-65
2022/08/05 14:44:24;;;;;;;2.77;2.20;;;;;;;;;;5073141;28;20450;-64
2022/08/05 14:46:52;;;;;;;3.07;2.37;;;;;;;;;;5073053;28;20505;-64
2022/08/05 14:49:19;;;;;;;3.27;2.40;;;;;;;;;;5073164;28;20819;-64
2022/08/05 14:51:46;;;;;;;2.40;2.20;;;;;;;;;;5073101;28;20447;-64
2022/08/05 14:54:13;;;;;;;2.23;2.13;;;;;;;;;;5073146;28;20443;-64
2022/08/05 14:56:41;;;;;;;2.40;2.30;;;;;;;;;;5072989;28;20481;-64